sensor_id;sensor_type;location;lat;lon;timestamp;pressure;altitude;pressure_sealevel;temperature;humidity
54308;BME280;40208;39.778;2.710;2023-03-16T00:01:27;101562.50;;;11.94;100.00
54308;BME280;40208;39.778;2.710;2023-03-16T00:04:12;101561.88;;;12.09;100.00
54308;BME280;40208;39.778;2.710;2023-03-16T00:06:57;101560.97;;;12.11;100.00
54308;BME280;40208;39.778;2.710;2023-03-16T00:09:42;101556.50;;;12.11;100.00
54308;BME280;40208;39.778;2.710;2023-03-16T00:12:27;101542.06;;;11.95;100.00
54308;BME280;40208;39.778;2.710;2023-03-16T00:15:12;101545.09;;;12.07;100.00
54308;BME280;40208;39.778;2.710;2023-03-16T00:17:57;101519.84;;;11.96;100.00
54308;BME280;40208;39.778;2.710;2023-03-16T00:20:42;101519.69;;;12.00;100.00
54308;BME280;40208;39.778;2.710;2023-03-16T00:23:27;101514.44;;;11.99;100.00
54308;BME280;40208;39.778;2.710;2023-03-16T00:26:12;101509.03;;;12.00;100.00
54308;BME280;40208;39.778;2.710;2023-03-16T00:28:57;101560.22;;;12.29;100.00
54308;BME280;40208;39.778;2.710;2023-03-16T00:31:42;101569.69;;;12.14;100.00
54308;BME280;40208;39.778;2.710;2023-03-16T00:34:27;101517.09;;;11.99;100.00
54308;BME280;40208;39.778;2.710;2023-03-16T00:37:15;101534.84;;;11.98;100.00
54308;BME280;40208;39.778;2.710;2023-03-16T00:40:01;101528.34;;;11.82;100.00
54308;BME280;40208;39.778;2.710;2023-03-16T00:42:54;101561.69;;;11.67;100.00
54308;BME280;40208;39.778;2.710;2023-03-16T00:45:39;101540.16;;;11.75;100.00
54308;BME280;40208;39.778;2.710;2023-03-16T00:48:46;101550.09;;;11.93;100.00
54308;BME280;40208;39.778;2.710;2023-03-16T00:51:34;101557.09;;;11.72;100.00
54308;BME280;40208;39.778;2.710;2023-03-16T00:54:30;101555.03;;;11.79;100.00
54308;BME280;40208;39.778;2.710;2023-03-16T00:57:17;101562.66;;;11.90;100.00
54308;BME280;40208;39.778;2.710;2023-03-16T01:00:02;101502.34;;;11.66;100.00
54308;BME280;40208;39.778;2.710;2023-03-16T01:02:56;101412.22;;;11.13;100.00
54308;BME280;40208;39.778;2.710;2023-03-16T01:05:41;101484.31;;;11.51;100.00
54308;BME280;40208;39.778;2.710;2023-03-16T01:08:26;101536.16;;;11.86;100.00
54308;BME280;40208;39.778;2.710;2023-03-16T01:11:17;101547.06;;;11.79;100.00
54308;BME280;40208;39.778;2.710;2023-03-16T01:14:03;101546.00;;;11.84;100.00
54308;BME280;40208;39.778;2.710;2023-03-16T01:16:47;101477.25;;;11.50;100.00
54308;BME280;40208;39.778;2.710;2023-03-16T01:19:33;101542.28;;;11.88;100.00
54308;BME280;40208;39.778;2.710;2023-03-16T01:22:19;101546.75;;;11.88;100.00
54308;BME280;40208;39.778;2.710;2023-03-16T01:25:05;101542.28;;;11.88;100.00
54308;BME280;40208;39.778;2.710;2023-03-16T01:27:50;101499.94;;;11.60;100.00
54308;BME280;40208;39.778;2.710;2023-03-16T01:30:37;101512.66;;;11.74;100.00
54308;BME280;40208;39.778;2.710;2023-03-16T01:33:23;101522.69;;;11.67;100.00
54308;BME280;40208;39.778;2.710;2023-03-16T01:36:12;101523.56;;;11.44;100.00
54308;BME280;40208;39.778;2.710;2023-03-16T01:38:58;101459.66;;;10.74;100.00
54308;BME280;40208;39.778;2.710;2023-03-16T01:41:45;101511.06;;;11.46;100.00
54308;BME280;40208;39.778;2.710;2023-03-16T01:44:55;101503.75;;;11.53;100.00
54308;BME280;40208;39.778;2.710;2023-03-16T01:47:40;101501.00;;;11.55;100.00
54308;BME280;40208;39.778;2.710;2023-03-16T01:50:26;101500.88;;;11.58;100.00
54308;BME280;40208;39.778;2.710;2023-03-16T01:53:11;101471.03;;;11.28;100.00
54308;BME280;40208;39.778;2.710;2023-03-16T01:55:55;101435.56;;;10.80;100.00
54308;BME280;40208;39.778;2.710;2023-03-16T01:58:44;101455.91;;;10.79;100.00
54308;BME280;40208;39.778;2.710;2023-03-16T02:01:30;101453.91;;;10.86;100.00
54308;BME280;40208;39.778;2.710;2023-03-16T02:07:12;101497.22;;;10.88;100.00
54308;BME280;40208;39.778;2.710;2023-03-16T02:10:02;101440.50;;;10.39;100.00
54308;BME280;40208;39.778;2.710;2023-03-16T02:12:48;101439.19;;;10.52;100.00
54308;BME280;40208;39.778;2.710;2023-03-16T02:15:33;101484.94;;;11.11;100.00
54308;BME280;40208;39.778;2.710;2023-03-16T02:18:19;101490.00;;;11.17;100.00
54308;BME280;40208;39.778;2.710;2023-03-16T02:24:09;101458.03;;;10.95;100.00
54308;BME280;40208;39.778;2.710;2023-03-16T02:26:59;101464.31;;;10.67;100.00
54308;BME280;40208;39.778;2.710;2023-03-16T02:30:07;101463.56;;;10.64;100.00
54308;BME280;40208;39.778;2.710;2023-03-16T02:32:55;101487.50;;;10.62;100.00
54308;BME280;40208;39.778;2.710;2023-03-16T02:35:40;101487.00;;;10.51;100.00
54308;BME280;40208;39.778;2.710;2023-03-16T02:38:25;101446.19;;;10.27;100.00
54308;BME280;40208;39.778;2.710;2023-03-16T02:41:15;101445.63;;;10.45;100.00
54308;BME280;40208;39.778;2.710;2023-03-16T02:44:07;101469.38;;;10.48;100.00
54308;BME280;40208;39.778;2.710;2023-03-16T02:47:01;101481.59;;;10.79;100.00
54308;BME280;40208;39.778;2.710;2023-03-16T02:49:48;101455.81;;;10.57;100.00
54308;BME280;40208;39.778;2.710;2023-03-16T02:52:37;101484.63;;;10.42;100.00
54308;BME280;40208;39.778;2.710;2023-03-16T02:55:22;101468.28;;;10.27;100.00
54308;BME280;40208;39.778;2.710;2023-03-16T02:58:07;101476.44;;;10.21;100.00
54308;BME280;40208;39.778;2.710;2023-03-16T03:00:52;101478.19;;;9.94;100.00
54308;BME280;40208;39.778;2.710;2023-03-16T03:03:37;101426.28;;;9.59;100.00
54308;BME280;40208;39.778;2.710;2023-03-16T03:06:22;101476.63;;;10.15;100.00
54308;BME280;40208;39.778;2.710;2023-03-16T03:09:09;101480.31;;;10.39;100.00
54308;BME280;40208;39.778;2.710;2023-03-16T03:11:56;101420.22;;;10.10;100.00
54308;BME280;40208;39.778;2.710;2023-03-16T03:14:41;101435.13;;;10.14;100.00
54308;BME280;40208;39.778;2.710;2023-03-16T03:17:27;101471.69;;;10.59;100.00
54308;BME280;40208;39.778;2.710;2023-03-16T03:20:15;101455.06;;;10.54;100.00
54308;BME280;40208;39.778;2.710;2023-03-16T03:23:00;101485.34;;;10.73;100.00
54308;BME280;40208;39.778;2.710;2023-03-16T03:25:46;101432.22;;;9.95;100.00
54308;BME280;40208;39.778;2.710;2023-03-16T03:28:31;101499.13;;;10.31;100.00
54308;BME280;40208;39.778;2.710;2023-03-16T03:31:20;101486.84;;;10.29;100.00
54308;BME280;40208;39.778;2.710;2023-03-16T03:34:06;101462.09;;;10.27;100.00
54308;BME280;40208;39.778;2.710;2023-03-16T03:36:50;101479.53;;;10.07;100.00
54308;BME280;40208;39.778;2.710;2023-03-16T03:39:37;101481.94;;;10.15;100.00
54308;BME280;40208;39.778;2.710;2023-03-16T03:42:23;101481.19;;;10.11;100.00
54308;BME280;40208;39.778;2.710;2023-03-16T03:45:09;101487.06;;;10.21;100.00
54308;BME280;40208;39.778;2.710;2023-03-16T03:47:56;101459.97;;;9.83;100.00
54308;BME280;40208;39.778;2.710;2023-03-16T03:50:41;101406.59;;;9.38;100.00
54308;BME280;40208;39.778;2.710;2023-03-16T03:53:25;101430.75;;;9.27;100.00
54308;BME280;40208;39.778;2.710;2023-03-16T03:56:10;101450.72;;;9.68;100.00
54308;BME280;40208;39.778;2.710;2023-03-16T03:58:55;101450.22;;;9.84;100.00
54308;BME280;40208;39.778;2.710;2023-03-16T04:01:40;101445.41;;;9.96;100.00
54308;BME280;40208;39.778;2.710;2023-03-16T04:04:25;101455.84;;;10.01;100.00
54308;BME280;40208;39.778;2.710;2023-03-16T04:07:10;101497.72;;;10.19;100.00
54308;BME280;40208;39.778;2.710;2023-03-16T04:09:56;101500.81;;;10.34;100.00
54308;BME280;40208;39.778;2.710;2023-03-16T04:12:41;101502.00;;;10.24;100.00
54308;BME280;40208;39.778;2.710;2023-03-16T04:15:26;101450.78;;;9.65;100.00
54308;BME280;40208;39.778;2.710;2023-03-16T04:18:11;101511.09;;;9.87;100.00
54308;BME280;40208;39.778;2.710;2023-03-16T04:20:56;101480.91;;;9.92;100.00
54308;BME280;40208;39.778;2.710;2023-03-16T04:23:41;101447.25;;;9.94;100.00
54308;BME280;40208;39.778;2.710;2023-03-16T04:26:26;101449.84;;;9.96;100.00
54308;BME280;40208;39.778;2.710;2023-03-16T04:29:12;101481.13;;;10.13;100.00
54308;BME280;40208;39.778;2.710;2023-03-16T04:31:57;101478.09;;;9.97;100.00
54308;BME280;40208;39.778;2.710;2023-03-16T04:34:43;101496.94;;;9.88;100.00
54308;BME280;40208;39.778;2.710;2023-03-16T04:37:27;101485.19;;;9.68;100.00
54308;BME280;40208;39.778;2.710;2023-03-16T04:40:12;101444.69;;;9.33;100.00
54308;BME280;40208;39.778;2.710;2023-03-16T04:43:00;101487.69;;;9.73;100.00
54308;BME280;40208;39.778;2.710;2023-03-16T04:45:46;101452.63;;;9.63;100.00
54308;BME280;40208;39.778;2.710;2023-03-16T04:48:31;101441.94;;;9.66;100.00
54308;BME280;40208;39.778;2.710;2023-03-16T04:51:15;101459.00;;;9.86;100.00
54308;BME280;40208;39.778;2.710;2023-03-16T04:54:01;101355.59;;;9.31;100.00
54308;BME280;40208;39.778;2.710;2023-03-16T04:56:45;101452.56;;;9.94;100.00
54308;BME280;40208;39.778;2.710;2023-03-16T04:59:30;101444.97;;;9.54;100.00
54308;BME280;40208;39.778;2.710;2023-03-16T05:02:15;101488.72;;;9.97;100.00
54308;BME280;40208;39.778;2.710;2023-03-16T05:05:03;101434.81;;;9.68;100.00
54308;BME280;40208;39.778;2.710;2023-03-16T05:07:48;101490.69;;;9.90;100.00
54308;BME280;40208;39.778;2.710;2023-03-16T05:10:33;101440.13;;;9.68;100.00
54308;BME280;40208;39.778;2.710;2023-03-16T05:13:18;101496.28;;;10.09;100.00
54308;BME280;40208;39.778;2.710;2023-03-16T05:16:03;101491.59;;;9.89;100.00
54308;BME280;40208;39.778;2.710;2023-03-16T05:18:49;101454.75;;;9.52;100.00
54308;BME280;40208;39.778;2.710;2023-03-16T05:21:33;101486.59;;;9.80;100.00
54308;BME280;40208;39.778;2.710;2023-03-16T05:24:21;101491.41;;;9.95;100.00
54308;BME280;40208;39.778;2.710;2023-03-16T05:27:07;101447.09;;;9.71;100.00
54308;BME280;40208;39.778;2.710;2023-03-16T05:29:52;101482.31;;;10.04;100.00
54308;BME280;40208;39.778;2.710;2023-03-16T05:32:38;101404.06;;;9.63;100.00
54308;BME280;40208;39.778;2.710;2023-03-16T05:35:23;101478.53;;;10.11;100.00
54308;BME280;40208;39.778;2.710;2023-03-16T05:38:08;101479.16;;;9.91;100.00
54308;BME280;40208;39.778;2.710;2023-03-16T05:40:53;101454.28;;;9.38;100.00
54308;BME280;40208;39.778;2.710;2023-03-16T05:43:38;101478.66;;;9.79;100.00
54308;BME280;40208;39.778;2.710;2023-03-16T05:46:23;101452.34;;;9.72;100.00
54308;BME280;40208;39.778;2.710;2023-03-16T05:49:08;101439.59;;;9.55;100.00
54308;BME280;40208;39.778;2.710;2023-03-16T05:51:56;101472.91;;;9.34;100.00
54308;BME280;40208;39.778;2.710;2023-03-16T05:54:41;101482.84;;;9.28;100.00
54308;BME280;40208;39.778;2.710;2023-03-16T05:57:27;101399.72;;;9.01;100.00
54308;BME280;40208;39.778;2.710;2023-03-16T06:00:14;101308.34;;;8.56;100.00
54308;BME280;40208;39.778;2.710;2023-03-16T06:02:59;101474.31;;;9.17;100.00
54308;BME280;40208;39.778;2.710;2023-03-16T06:05:46;101479.34;;;8.95;100.00
54308;BME280;40208;39.778;2.710;2023-03-16T06:08:31;101480.09;;;9.00;100.00
54308;BME280;40208;39.778;2.710;2023-03-16T06:11:16;101472.91;;;9.34;100.00
54308;BME280;40208;39.778;2.710;2023-03-16T06:14:01;101449.66;;;8.82;100.00
54308;BME280;40208;39.778;2.710;2023-03-16T06:16:46;101425.81;;;8.51;100.00
54308;BME280;40208;39.778;2.710;2023-03-16T06:19:31;101438.41;;;8.39;100.00
54308;BME280;40208;39.778;2.710;2023-03-16T06:22:16;101482.91;;;8.59;100.00
54308;BME280;40208;39.778;2.710;2023-03-16T06:25:02;101477.00;;;8.49;100.00
54308;BME280;40208;39.778;2.710;2023-03-16T06:27:46;101436.28;;;8.19;100.00
54308;BME280;40208;39.778;2.710;2023-03-16T06:30:33;101447.25;;;8.38;100.00
54308;BME280;40208;39.778;2.710;2023-03-16T06:33:18;101468.88;;;8.56;100.00
54308;BME280;40208;39.778;2.710;2023-03-16T06:36:03;101406.66;;;8.39;100.00
54308;BME280;40208;39.778;2.710;2023-03-16T06:38:48;101433.84;;;8.47;100.00
54308;BME280;40208;39.778;2.710;2023-03-16T06:41:33;101429.28;;;8.53;100.00
54308;BME280;40208;39.778;2.710;2023-03-16T06:44:19;101432.25;;;8.39;100.00
54308;BME280;40208;39.778;2.710;2023-03-16T06:47:04;101485.50;;;8.61;100.00
54308;BME280;40208;39.778;2.710;2023-03-16T06:49:49;101489.69;;;8.69;100.00
54308;BME280;40208;39.778;2.710;2023-03-16T06:52:35;101478.81;;;8.47;100.00
54308;BME280;40208;39.778;2.710;2023-03-16T06:55:20;101452.03;;;8.24;100.00
54308;BME280;40208;39.778;2.710;2023-03-16T06:58:06;101426.13;;;8.01;100.00
54308;BME280;40208;39.778;2.710;2023-03-16T07:00:51;101505.47;;;8.37;100.00
54308;BME280;40208;39.778;2.710;2023-03-16T07:03:37;101513.53;;;8.68;100.00
54308;BME280;40208;39.778;2.710;2023-03-16T07:06:22;101504.84;;;8.63;100.00
54308;BME280;40208;39.778;2.710;2023-03-16T07:09:07;101519.84;;;8.64;100.00
54308;BME280;40208;39.778;2.710;2023-03-16T07:11:55;101520.75;;;8.63;100.00
54308;BME280;40208;39.778;2.710;2023-03-16T07:14:40;101525.19;;;8.61;100.00
54308;BME280;40208;39.778;2.710;2023-03-16T07:17:25;101525.03;;;8.68;100.00
54308;BME280;40208;39.778;2.710;2023-03-16T07:20:11;101503.91;;;8.65;100.00
54308;BME280;40208;39.778;2.710;2023-03-16T07:22:56;101501.13;;;8.72;100.00
54308;BME280;40208;39.778;2.710;2023-03-16T07:25:41;101501.00;;;8.76;100.00
54308;BME280;40208;39.778;2.710;2023-03-16T07:28:28;101536.53;;;9.00;100.00
54308;BME280;40208;39.778;2.710;2023-03-16T07:31:13;101502.47;;;8.86;100.00
54308;BME280;40208;39.778;2.710;2023-03-16T07:33:58;101522.19;;;9.09;100.00
54308;BME280;40208;39.778;2.710;2023-03-16T07:36:43;101532.94;;;9.36;100.00
54308;BME280;40208;39.778;2.710;2023-03-16T07:39:28;101522.25;;;9.39;100.00
54308;BME280;40208;39.778;2.710;2023-03-16T07:42:13;101541.88;;;9.63;100.00
54308;BME280;40208;39.778;2.710;2023-03-16T07:44:59;101506.72;;;9.56;100.00
54308;BME280;40208;39.778;2.710;2023-03-16T07:47:44;101400.72;;;8.97;100.00
54308;BME280;40208;39.778;2.710;2023-03-16T07:50:29;101524.28;;;9.90;100.00
54308;BME280;40208;39.778;2.710;2023-03-16T07:53:14;101519.47;;;10.03;100.00
54308;BME280;40208;39.778;2.710;2023-03-16T07:55:59;101493.81;;;10.03;100.00
54308;BME280;40208;39.778;2.710;2023-03-16T07:58:44;101514.19;;;10.31;100.00
54308;BME280;40208;39.778;2.710;2023-03-16T08:01:30;101529.38;;;10.54;100.00
54308;BME280;40208;39.778;2.710;2023-03-16T08:04:15;101532.47;;;10.67;100.00
54308;BME280;40208;39.778;2.710;2023-03-16T08:07:00;101540.84;;;10.81;100.00
54308;BME280;40208;39.778;2.710;2023-03-16T08:09:45;101498.78;;;10.69;100.00
54308;BME280;40208;39.778;2.710;2023-03-16T08:12:30;101489.41;;;10.83;100.00
54308;BME280;40208;39.778;2.710;2023-03-16T08:15:17;101513.00;;;11.18;100.00
54308;BME280;40208;39.778;2.710;2023-03-16T08:18:01;101519.25;;;11.40;100.00
54308;BME280;40208;39.778;2.710;2023-03-16T08:20:46;101529.44;;;11.53;100.00
54308;BME280;40208;39.778;2.710;2023-03-16T08:23:31;101493.50;;;11.42;100.00
54308;BME280;40208;39.778;2.710;2023-03-16T08:26:18;101520.09;;;11.66;100.00
54308;BME280;40208;39.778;2.710;2023-03-16T08:29:04;101537.91;;;11.87;100.00
54308;BME280;40208;39.778;2.710;2023-03-16T08:31:48;101502.63;;;11.82;100.00
54308;BME280;40208;39.778;2.710;2023-03-16T08:34:33;101525.50;;;12.10;100.00
54308;BME280;40208;39.778;2.710;2023-03-16T08:37:19;101522.19;;;12.27;100.00
54308;BME280;40208;39.778;2.710;2023-03-16T08:40:06;101499.22;;;12.24;100.00
54308;BME280;40208;39.778;2.710;2023-03-16T08:42:54;101510.38;;;12.34;100.00
54308;BME280;40208;39.778;2.710;2023-03-16T08:45:40;101536.91;;;12.58;100.00
54308;BME280;40208;39.778;2.710;2023-03-16T08:48:26;101488.56;;;12.46;100.00
54308;BME280;40208;39.778;2.710;2023-03-16T08:51:13;101470.84;;;12.45;100.00
54308;BME280;40208;39.778;2.710;2023-03-16T08:53:58;101516.28;;;12.83;100.00
54308;BME280;40208;39.778;2.710;2023-03-16T08:56:43;101534.09;;;13.03;100.00
54308;BME280;40208;39.778;2.710;2023-03-16T08:59:28;101436.59;;;12.58;100.00
54308;BME280;40208;39.778;2.710;2023-03-16T09:02:13;101507.25;;;13.08;100.00
54308;BME280;40208;39.778;2.710;2023-03-16T09:04:58;101531.03;;;13.33;100.00
54308;BME280;40208;39.778;2.710;2023-03-16T09:07:43;101501.16;;;13.25;100.00
54308;BME280;40208;39.778;2.710;2023-03-16T09:10:28;101507.03;;;13.33;100.00
54308;BME280;40208;39.778;2.710;2023-03-16T09:13:13;101501.50;;;13.56;100.00
54308;BME280;40208;39.778;2.710;2023-03-16T09:16:00;101534.28;;;13.79;100.00
54308;BME280;40208;39.778;2.710;2023-03-16T09:18:46;101521.38;;;13.89;100.00
54308;BME280;40208;39.778;2.710;2023-03-16T09:21:31;101525.91;;;14.06;100.00
54308;BME280;40208;39.778;2.710;2023-03-16T09:24:18;101525.63;;;14.12;100.00
54308;BME280;40208;39.778;2.710;2023-03-16T09:27:03;101486.31;;;13.96;100.00
54308;BME280;40208;39.778;2.710;2023-03-16T09:29:48;101464.31;;;13.91;100.00
54308;BME280;40208;39.778;2.710;2023-03-16T09:32:34;101512.50;;;14.43;100.00
54308;BME280;40208;39.778;2.710;2023-03-16T09:35:20;101485.00;;;14.41;100.00
54308;BME280;40208;39.778;2.710;2023-03-16T09:38:06;101516.94;;;14.79;100.00
54308;BME280;40208;39.778;2.710;2023-03-16T09:41:00;101517.97;;;14.94;100.00
54308;BME280;40208;39.778;2.710;2023-03-16T09:47:15;101510.41;;;15.20;100.00
54308;BME280;40208;39.778;2.710;2023-03-16T09:50:06;101424.41;;;14.94;100.00
54308;BME280;40208;39.778;2.710;2023-03-16T09:56:08;101506.91;;;15.68;100.00
54308;BME280;40208;39.778;2.710;2023-03-16T09:58:54;101505.41;;;15.80;100.00
54308;BME280;40208;39.778;2.710;2023-03-16T10:05:12;101435.84;;;15.63;100.00
54308;BME280;40208;39.778;2.710;2023-03-16T10:08:20;101486.28;;;16.18;98.57
54308;BME280;40208;39.778;2.710;2023-03-16T10:20:10;101480.69;;;16.53;93.38
54308;BME280;40208;39.778;2.710;2023-03-16T10:22:56;101470.56;;;16.58;94.39
54308;BME280;40208;39.778;2.710;2023-03-16T10:25:56;101458.78;;;16.61;92.46
54308;BME280;40208;39.778;2.710;2023-03-16T10:28:41;101459.13;;;16.70;91.22
54308;BME280;40208;39.778;2.710;2023-03-16T10:31:27;101479.03;;;16.97;92.23
54308;BME280;40208;39.778;2.710;2023-03-16T10:34:13;101462.19;;;17.09;90.54
54308;BME280;40208;39.778;2.710;2023-03-16T10:36:58;101466.78;;;17.21;87.72
54308;BME280;40208;39.778;2.710;2023-03-16T10:39:47;101394.72;;;16.86;87.05
54308;BME280;40208;39.778;2.710;2023-03-16T10:42:34;101393.59;;;16.90;84.75
54308;BME280;40208;39.778;2.710;2023-03-16T10:45:28;101462.38;;;17.49;85.52
54308;BME280;40208;39.778;2.710;2023-03-16T10:48:19;101416.19;;;17.29;87.38
54308;BME280;40208;39.778;2.710;2023-03-16T10:51:14;101432.75;;;17.50;89.62
54308;BME280;40208;39.778;2.710;2023-03-16T10:54:26;101459.47;;;17.80;87.62
54308;BME280;40208;39.778;2.710;2023-03-16T10:57:34;101453.59;;;17.88;90.79
54308;BME280;40208;39.778;2.710;2023-03-16T11:00:23;101434.25;;;17.83;90.02
54308;BME280;40208;39.778;2.710;2023-03-16T11:03:21;101452.59;;;18.04;89.59
54308;BME280;40208;39.778;2.710;2023-03-16T11:06:22;101444.69;;;18.15;91.33
54308;BME280;40208;39.778;2.710;2023-03-16T11:09:13;101439.88;;;18.20;92.79
54308;BME280;40208;39.778;2.710;2023-03-16T11:12:28;101410.50;;;18.17;93.65
54308;BME280;40208;39.778;2.710;2023-03-16T11:15:13;101435.19;;;18.36;94.42
54308;BME280;40208;39.778;2.710;2023-03-16T11:17:58;101433.47;;;18.48;94.13
54308;BME280;40208;39.778;2.710;2023-03-16T11:20:45;101392.91;;;18.26;91.60
54308;BME280;40208;39.778;2.710;2023-03-16T11:23:38;101400.56;;;18.32;92.70
54308;BME280;40208;39.778;2.710;2023-03-16T11:26:33;101408.44;;;18.48;93.76
54308;BME280;40208;39.778;2.710;2023-03-16T11:29:26;101384.56;;;18.30;94.27
54308;BME280;40208;39.778;2.710;2023-03-16T11:32:24;101426.31;;;18.61;92.66
54308;BME280;40208;39.778;2.710;2023-03-16T11:41:12;101410.41;;;18.71;89.03
54308;BME280;40208;39.778;2.710;2023-03-16T11:44:14;101399.31;;;18.76;87.96
54308;BME280;40208;39.778;2.710;2023-03-16T11:47:31;101399.47;;;18.87;87.47
54308;BME280;40208;39.778;2.710;2023-03-16T11:50:27;101396.56;;;18.90;88.01
54308;BME280;40208;39.778;2.710;2023-03-16T11:59:41;101387.09;;;18.97;90.59
54308;BME280;40208;39.778;2.710;2023-03-16T12:09:03;101392.91;;;19.04;97.75
54308;BME280;40208;39.778;2.710;2023-03-16T12:14:51;101385.38;;;18.96;100.00
54308;BME280;40208;39.778;2.710;2023-03-16T12:17:42;101338.56;;;18.73;100.00
54308;BME280;40208;39.778;2.710;2023-03-16T12:20:43;101382.66;;;19.09;100.00
54308;BME280;40208;39.778;2.710;2023-03-16T12:23:39;101348.69;;;18.95;100.00
54308;BME280;40208;39.778;2.710;2023-03-16T12:26:27;101325.88;;;18.88;98.52
54308;BME280;40208;39.778;2.710;2023-03-16T12:29:37;101372.75;;;19.10;96.24
54308;BME280;40208;39.778;2.710;2023-03-16T12:44:21;101346.59;;;19.12;96.94
54308;BME280;40208;39.778;2.710;2023-03-16T12:47:51;101372.28;;;19.41;99.48
54308;BME280;40208;39.778;2.710;2023-03-16T12:50:51;101321.78;;;19.08;100.00
54308;BME280;40208;39.778;2.710;2023-03-16T12:56:43;101361.44;;;19.30;100.00
54308;BME280;40208;39.778;2.710;2023-03-16T12:59:40;101377.25;;;19.35;100.00
54308;BME280;40208;39.778;2.710;2023-03-16T13:02:35;101360.56;;;19.30;100.00
54308;BME280;40208;39.778;2.710;2023-03-16T13:05:29;101365.41;;;19.37;100.00
54308;BME280;40208;39.778;2.710;2023-03-16T13:08:17;101362.94;;;19.34;100.00
54308;BME280;40208;39.778;2.710;2023-03-16T13:11:08;101371.22;;;19.31;100.00
54308;BME280;40208;39.778;2.710;2023-03-16T13:14:06;101358.56;;;19.20;100.00
54308;BME280;40208;39.778;2.710;2023-03-16T13:17:03;101377.38;;;19.20;100.00
54308;BME280;40208;39.778;2.710;2023-03-16T13:20:06;101384.59;;;19.20;100.00
54308;BME280;40208;39.778;2.710;2023-03-16T13:28:50;101383.13;;;18.90;100.00
54308;BME280;40208;39.778;2.710;2023-03-16T13:31:52;101390.31;;;18.77;100.00
54308;BME280;40208;39.778;2.710;2023-03-16T13:35:14;101335.09;;;18.46;100.00
54308;BME280;40208;39.778;2.710;2023-03-16T13:41:22;101361.88;;;18.60;100.00
54308;BME280;40208;39.778;2.710;2023-03-16T13:47:21;101314.91;;;18.27;100.00
54308;BME280;40208;39.778;2.710;2023-03-16T13:50:10;101334.25;;;18.45;100.00
54308;BME280;40208;39.778;2.710;2023-03-16T13:52:57;101334.25;;;18.45;100.00
54308;BME280;40208;39.778;2.710;2023-03-16T13:56:02;101329.09;;;18.42;100.00
54308;BME280;40208;39.778;2.710;2023-03-16T14:02:54;101212.34;;;17.82;100.00
54308;BME280;40208;39.778;2.710;2023-03-16T14:05:39;101178.78;;;17.62;100.00
54308;BME280;40208;39.778;2.710;2023-03-16T14:08:24;101261.16;;;18.27;100.00
54308;BME280;40208;39.778;2.710;2023-03-16T14:11:10;101297.38;;;18.60;100.00
54308;BME280;40208;39.778;2.710;2023-03-16T14:13:58;101296.41;;;18.61;100.00
54308;BME280;40208;39.778;2.710;2023-03-16T14:16:44;101300.38;;;18.68;100.00
54308;BME280;40208;39.778;2.710;2023-03-16T14:19:29;101242.00;;;18.32;100.00
54308;BME280;40208;39.778;2.710;2023-03-16T14:22:22;101267.59;;;18.50;100.00
54308;BME280;40208;39.778;2.710;2023-03-16T14:25:21;101266.63;;;18.51;100.00
54308;BME280;40208;39.778;2.710;2023-03-16T14:28:07;101324.44;;;18.70;100.00
54308;BME280;40208;39.778;2.710;2023-03-16T14:31:00;101330.19;;;18.65;100.00
54308;BME280;40208;39.778;2.710;2023-03-16T14:33:46;101332.75;;;18.54;100.00
54308;BME280;40208;39.778;2.710;2023-03-16T14:36:36;101337.81;;;18.58;100.00
54308;BME280;40208;39.778;2.710;2023-03-16T14:39:26;101253.41;;;18.10;100.00
54308;BME280;40208;39.778;2.710;2023-03-16T14:42:20;101326.94;;;18.47;100.00
54308;BME280;40208;39.778;2.710;2023-03-16T14:45:11;101278.25;;;18.13;100.00
54308;BME280;40208;39.778;2.710;2023-03-16T14:48:06;101339.63;;;18.45;100.00
54308;BME280;40208;39.778;2.710;2023-03-16T14:51:01;101304.56;;;18.21;100.00
54308;BME280;40208;39.778;2.710;2023-03-16T14:53:47;101325.53;;;18.29;100.00
54308;BME280;40208;39.778;2.710;2023-03-16T14:56:32;101323.81;;;18.28;100.00
54308;BME280;40208;39.778;2.710;2023-03-16T14:59:19;101214.09;;;17.56;100.00
54308;BME280;40208;39.778;2.710;2023-03-16T15:02:06;101291.53;;;18.02;100.00
54308;BME280;40208;39.778;2.710;2023-03-16T15:04:59;101311.66;;;18.22;100.00
54308;BME280;40208;39.778;2.710;2023-03-16T15:07:47;101217.03;;;17.66;100.00
54308;BME280;40208;39.778;2.710;2023-03-16T15:10:34;101254.53;;;17.80;100.00
54308;BME280;40208;39.778;2.710;2023-03-16T15:13:21;101198.31;;;17.51;100.00
54308;BME280;40208;39.778;2.710;2023-03-16T15:16:19;101314.78;;;18.16;100.00
54308;BME280;40208;39.778;2.710;2023-03-16T15:19:05;101302.06;;;18.05;100.00
54308;BME280;40208;39.778;2.710;2023-03-16T15:21:50;101313.78;;;18.17;100.00
54308;BME280;40208;39.778;2.710;2023-03-16T15:24:35;101312.84;;;18.18;100.00
54308;BME280;40208;39.778;2.710;2023-03-16T15:27:27;101212.66;;;17.50;100.00
54308;BME280;40208;39.778;2.710;2023-03-16T15:30:17;101320.47;;;18.11;100.00
54308;BME280;40208;39.778;2.710;2023-03-16T15:33:03;101319.69;;;18.09;100.00
54308;BME280;40208;39.778;2.710;2023-03-16T15:35:49;101302.38;;;18.00;100.00
54308;BME280;40208;39.778;2.710;2023-03-16T15:38:38;101306.03;;;17.99;100.00
54308;BME280;40208;39.778;2.710;2023-03-16T15:41:25;101229.22;;;17.57;100.00
54308;BME280;40208;39.778;2.710;2023-03-16T15:44:13;101249.47;;;17.75;100.00
54308;BME280;40208;39.778;2.710;2023-03-16T15:46:58;101312.81;;;18.05;100.00
54308;BME280;40208;39.778;2.710;2023-03-16T15:49:44;101232.13;;;17.54;100.00